createdAt,value
2019-03-23T00:02:06.388Z,4.80
2019-03-23T00:04:37.421Z,4.90
2019-03-23T00:07:08.232Z,5.00
2019-03-23T00:09:38.856Z,5.20
2019-03-23T00:12:09.668Z,5.40
2019-03-23T00:14:40.236Z,5.50
2019-03-23T00:17:10.859Z,5.40
2019-03-23T00:19:41.432Z,5.50
2019-03-23T00:22:12.127Z,5.50
2019-03-23T00:24:42.748Z,5.60
2019-03-23T00:27:13.325Z,5.60
2019-03-23T00:29:44.161Z,5.60
2019-03-23T00:32:16.728Z,5.70
2019-03-23T00:34:47.581Z,5.70
2019-03-23T00:37:18.440Z,5.70
2019-03-23T00:39:49.243Z,5.80
2019-03-23T00:42:19.863Z,5.90
2019-03-23T00:44:50.432Z,5.80
2019-03-23T00:47:21.558Z,5.70
2019-03-23T00:49:52.396Z,5.60
2019-03-23T00:52:24.112Z,5.40
2019-03-23T00:54:54.929Z,5.10
2019-03-23T00:57:25.965Z,4.90
2019-03-23T00:59:56.780Z,4.70
2019-03-23T01:02:27.623Z,4.60
2019-03-23T01:04:58.655Z,4.80
2019-03-23T01:07:29.280Z,4.70
2019-03-23T01:09:59.861Z,4.50
2019-03-23T01:12:30.556Z,4.50
2019-03-23T01:15:01.369Z,4.50
2019-03-23T01:17:32.248Z,4.50
2019-03-23T01:20:02.820Z,4.60
2019-03-23T01:22:33.754Z,4.70
2019-03-23T01:25:05.208Z,4.70
2019-03-23T01:27:36.504Z,4.60
2019-03-23T01:30:09.107Z,4.50
2019-03-23T01:32:39.872Z,4.30
2019-03-23T01:35:10.713Z,4.50
2019-03-23T01:37:41.365Z,4.40
2019-03-23T01:40:12.118Z,4.20
2019-03-23T01:42:42.971Z,4.30
2019-03-23T01:45:16.008Z,4.10
2019-03-23T01:47:46.640Z,4.10
2019-03-23T01:50:17.452Z,4.00
2019-03-23T01:52:48.474Z,4.00
2019-03-23T01:55:19.131Z,4.00
2019-03-23T01:57:49.977Z,4.20
2019-03-23T02:00:20.805Z,4.20
2019-03-23T02:02:51.446Z,4.10
2019-03-23T02:05:22.308Z,4.20
2019-03-23T02:07:52.926Z,4.40
2019-03-23T02:10:23.795Z,4.40
2019-03-23T02:12:54.381Z,4.30
2019-03-23T02:15:25.592Z,4.20
2019-03-23T02:17:56.308Z,4.10
2019-03-23T02:20:26.882Z,4.30
2019-03-23T02:22:57.526Z,4.20
2019-03-23T02:25:28.345Z,4.30
2019-03-23T02:27:58.973Z,4.20
2019-03-23T02:30:29.598Z,4.20
2019-03-23T02:33:00.692Z,4.10
2019-03-23T02:35:31.305Z,4.10
2019-03-23T02:38:01.881Z,4.20
2019-03-23T02:40:32.741Z,4.20
2019-03-23T02:43:03.609Z,4.30
2019-03-23T02:45:34.248Z,4.30
2019-03-23T02:48:05.157Z,4.30
2019-03-23T02:50:35.990Z,4.30
2019-03-23T02:53:06.681Z,4.30
2019-03-23T02:55:38.280Z,4.40
2019-03-23T02:58:09.219Z,4.70
2019-03-23T03:00:40.310Z,5.00
2019-03-23T03:03:11.359Z,5.20
2019-03-23T03:05:42.485Z,5.40
2019-03-23T03:08:13.749Z,5.50
2019-03-23T03:10:45.113Z,5.60
2019-03-23T03:13:15.677Z,5.70
2019-03-23T03:15:46.255Z,5.80
2019-03-23T03:18:16.905Z,5.80
2019-03-23T03:20:47.786Z,5.90
2019-03-23T03:23:19.595Z,5.80
2019-03-23T03:25:50.206Z,5.90
2019-03-23T03:28:20.772Z,5.80
2019-03-23T03:30:51.637Z,5.90
2019-03-23T03:33:22.521Z,6.00
2019-03-23T03:35:53.466Z,6.00
2019-03-23T03:38:24.485Z,6.10
2019-03-23T03:40:55.280Z,6.10
2019-03-23T03:43:26.445Z,6.10
2019-03-23T03:45:57.300Z,6.20
2019-03-23T03:48:28.168Z,6.20
2019-03-23T03:50:58.977Z,6.40
2019-03-23T03:53:29.769Z,6.30
2019-03-23T03:56:00.338Z,6.40
2019-03-23T03:58:31.205Z,6.40
2019-03-23T04:01:01.939Z,6.30
2019-03-23T04:03:32.552Z,6.20
2019-03-23T04:06:03.139Z,6.30
2019-03-23T04:08:33.752Z,6.20
2019-03-23T04:11:04.440Z,6.20
2019-03-23T04:13:35.108Z,6.20
2019-03-23T04:16:05.694Z,6.30
2019-03-23T04:18:36.336Z,6.20
2019-03-23T04:21:07.380Z,6.20
2019-03-23T04:23:38.012Z,6.20
2019-03-23T04:26:08.890Z,6.10
2019-03-23T04:28:39.701Z,6.10
2019-03-23T04:31:10.553Z,6.10
2019-03-23T04:33:41.689Z,6.20
2019-03-23T04:36:12.325Z,6.10
2019-03-23T04:38:42.885Z,6.20
2019-03-23T04:41:13.751Z,6.10
2019-03-23T04:43:44.548Z,6.20
2019-03-23T04:46:15.192Z,6.10
2019-03-23T04:48:45.820Z,6.10
2019-03-23T04:51:16.628Z,6.00
2019-03-23T04:53:47.443Z,6.00
2019-03-23T04:56:18.063Z,5.90
2019-03-23T04:58:48.623Z,5.90
2019-03-23T05:01:19.488Z,5.90
2019-03-23T05:03:50.104Z,5.80
2019-03-23T05:06:20.685Z,5.80
2019-03-23T05:08:51.280Z,5.80
2019-03-23T05:11:22.195Z,5.90
2019-03-23T05:13:53.011Z,5.80
2019-03-23T05:16:23.584Z,5.80
2019-03-23T05:18:54.256Z,5.80
2019-03-23T05:21:24.825Z,5.80
2019-03-23T05:23:56.230Z,5.80
2019-03-23T05:26:27.092Z,5.70
2019-03-23T05:28:57.716Z,5.70
2019-03-23T05:31:28.545Z,5.70
2019-03-23T05:33:59.197Z,5.70
2019-03-23T05:36:29.765Z,5.70
2019-03-23T05:39:00.393Z,5.70
2019-03-23T05:41:31.488Z,5.70
2019-03-23T05:44:02.108Z,5.80
2019-03-23T05:46:32.683Z,5.80
2019-03-23T05:49:03.523Z,5.90
2019-03-23T05:51:34.333Z,5.90
2019-03-23T05:54:05.321Z,5.80
2019-03-23T05:56:35.953Z,5.80
2019-03-23T05:59:06.511Z,5.90
2019-03-23T06:01:37.096Z,5.90
2019-03-23T06:04:08.454Z,5.90
2019-03-23T06:06:39.274Z,5.90
2019-03-23T06:09:10.686Z,5.90
2019-03-23T06:11:42.694Z,6.00
2019-03-23T06:14:13.474Z,6.00
2019-03-23T06:16:45.202Z,6.10
2019-03-23T06:19:15.885Z,6.20
2019-03-23T06:21:46.824Z,6.30
2019-03-23T06:24:17.972Z,6.40
2019-03-23T06:26:48.631Z,6.50
2019-03-23T06:29:19.737Z,6.70
2019-03-23T06:31:50.404Z,6.80
2019-03-23T06:34:21.865Z,7.00
2019-03-23T06:36:52.721Z,7.20
2019-03-23T06:39:24.153Z,7.20
2019-03-23T06:41:55.511Z,7.40
2019-03-23T06:44:26.167Z,7.40
2019-03-23T06:46:56.731Z,7.50
2019-03-23T06:49:27.441Z,7.60
2019-03-23T06:51:58.059Z,7.70
2019-03-23T06:54:28.892Z,7.80
2019-03-23T06:56:59.963Z,7.90
2019-03-23T06:59:30.631Z,8.20
2019-03-23T07:02:01.210Z,8.40
2019-03-23T07:04:31.820Z,8.60
2019-03-23T07:07:02.642Z,8.90
2019-03-23T07:09:33.475Z,9.10
2019-03-23T07:12:04.255Z,9.30
2019-03-23T07:14:35.078Z,9.40
2019-03-23T07:17:06.228Z,9.70
2019-03-23T07:19:36.796Z,9.90
2019-03-23T07:22:07.428Z,10.20
2019-03-23T07:24:38.251Z,10.40
2019-03-23T07:27:09.320Z,10.40
2019-03-23T07:29:39.956Z,10.50
2019-03-23T07:32:10.751Z,10.70
2019-03-23T07:34:41.428Z,10.90
2019-03-23T07:37:13.212Z,10.80
2019-03-23T07:39:43.889Z,10.90
2019-03-23T07:42:14.832Z,11.00
2019-03-23T07:44:45.656Z,11.20
2019-03-23T07:47:16.324Z,11.30
2019-03-23T07:49:47.189Z,11.40
2019-03-23T07:52:17.780Z,11.50
2019-03-23T07:54:48.640Z,11.60
2019-03-23T07:57:19.449Z,11.70
2019-03-23T07:59:50.101Z,12.00
2019-03-23T08:02:20.688Z,12.00
2019-03-23T08:04:51.964Z,12.30
2019-03-23T08:07:22.528Z,12.60
2019-03-23T08:09:53.112Z,12.80
2019-03-23T08:12:23.963Z,12.90
2019-03-23T08:14:55.063Z,13.00
2019-03-23T08:17:26.019Z,13.10
2019-03-23T08:19:57.013Z,13.20
2019-03-23T08:22:27.831Z,13.20
2019-03-23T08:24:58.432Z,13.30
2019-03-23T08:27:29.280Z,13.20
2019-03-23T08:30:00.304Z,13.30
2019-03-23T08:32:31.409Z,13.50
2019-03-23T08:35:02.725Z,13.80
2019-03-23T08:37:34.280Z,13.90
2019-03-23T08:40:05.923Z,13.90
2019-03-23T08:42:36.853Z,13.80
2019-03-23T08:45:07.828Z,13.80
2019-03-23T08:47:38.700Z,13.80
2019-03-23T08:50:09.692Z,13.90
2019-03-23T08:52:40.490Z,13.60
2019-03-23T08:55:11.492Z,13.90
2019-03-23T08:57:42.586Z,13.90
2019-03-23T09:00:13.525Z,14.20
2019-03-23T09:02:44.229Z,14.10
2019-03-23T09:05:14.798Z,14.10
2019-03-23T09:07:45.814Z,14.20
2019-03-23T09:10:16.524Z,14.20
2019-03-23T09:12:47.408Z,14.30
2019-03-23T09:15:18.475Z,14.40
2019-03-23T09:17:49.113Z,14.50
2019-03-23T09:20:19.954Z,14.70
2019-03-23T09:22:50.980Z,15.00
2019-03-23T09:25:21.869Z,14.90
2019-03-23T09:27:52.965Z,15.10
2019-03-23T09:30:23.584Z,15.20
2019-03-23T09:32:56.914Z,15.40
2019-03-23T09:35:27.419Z,15.50
2019-03-23T09:37:58.087Z,15.70
2019-03-23T09:40:28.644Z,15.70
2019-03-23T09:42:59.819Z,15.80
2019-03-23T09:45:30.833Z,15.90
2019-03-23T09:48:01.541Z,15.80
2019-03-23T09:50:32.949Z,15.90
2019-03-23T09:53:04.076Z,16.00
2019-03-23T09:55:36.804Z,16.20
2019-03-23T09:58:07.608Z,16.30
2019-03-23T10:00:39.235Z,16.30
2019-03-23T10:03:10.420Z,16.50
2019-03-23T10:05:41.042Z,16.60
2019-03-23T10:08:13.063Z,16.50
2019-03-23T10:10:44.150Z,16.70
2019-03-23T10:13:14.771Z,16.90
2019-03-23T10:15:45.380Z,17.00
2019-03-23T10:18:15.960Z,17.10
2019-03-23T10:20:49.487Z,17.20
2019-03-23T10:23:20.537Z,17.10
2019-03-23T10:25:51.236Z,17.20
2019-03-23T10:28:22.044Z,17.30
2019-03-23T10:30:52.878Z,17.40
2019-03-23T10:33:24.101Z,17.50
2019-03-23T10:35:54.793Z,17.50
2019-03-23T10:38:25.761Z,17.60
2019-03-23T10:40:56.864Z,17.70
2019-03-23T10:43:27.537Z,17.80
2019-03-23T10:45:58.559Z,17.80
2019-03-23T10:48:29.612Z,17.90
2019-03-23T10:51:00.249Z,18.20
2019-03-23T10:53:31.082Z,18.10
2019-03-23T10:56:02.250Z,18.00
2019-03-23T10:58:33.791Z,18.10
2019-03-23T11:01:04.472Z,17.90
2019-03-23T11:03:35.137Z,18.10
2019-03-23T11:06:05.991Z,18.20
2019-03-23T11:08:36.787Z,18.40
2019-03-23T11:11:07.496Z,18.40
2019-03-23T11:13:38.321Z,18.50
2019-03-23T11:16:09.413Z,18.50
2019-03-23T11:18:39.991Z,18.60
2019-03-23T11:21:10.869Z,18.70
2019-03-23T11:23:41.452Z,18.50
2019-03-23T11:26:12.299Z,18.50
2019-03-23T11:28:43.364Z,18.50
2019-03-23T11:31:14.086Z,18.30
2019-03-23T11:33:44.758Z,18.20
2019-03-23T11:36:15.785Z,18.20
2019-03-23T11:38:46.893Z,18.30
2019-03-23T11:41:17.481Z,18.20
2019-03-23T11:43:48.357Z,18.20
2019-03-23T11:46:19.254Z,17.90
2019-03-23T11:48:49.864Z,17.90
2019-03-23T11:51:20.802Z,18.10
2019-03-23T11:53:51.493Z,18.20
2019-03-23T11:56:22.364Z,18.20
2019-03-23T11:58:54.018Z,18.20
2019-03-23T12:01:24.759Z,18.30
2019-03-23T12:03:55.356Z,18.40
2019-03-23T12:06:26.264Z,18.20
2019-03-23T12:08:57.105Z,18.00
2019-03-23T12:11:27.690Z,17.90
2019-03-23T12:13:58.316Z,17.80
2019-03-23T12:16:28.901Z,17.80
2019-03-23T12:18:59.527Z,17.90
2019-03-23T12:21:30.169Z,18.10
2019-03-23T12:24:00.992Z,18.10
2019-03-23T12:26:31.651Z,18.00
2019-03-23T12:29:02.515Z,18.10
2019-03-23T12:31:33.119Z,18.10
2019-03-23T12:34:04.486Z,18.00
2019-03-23T12:36:35.353Z,18.20
2019-03-23T12:39:06.961Z,18.30
2019-03-23T12:41:37.811Z,18.50
2019-03-23T12:44:08.400Z,18.30
2019-03-23T12:46:47.847Z,18.30
2019-03-23T12:49:11.984Z,18.40
2019-03-23T12:51:42.620Z,18.50
2019-03-23T12:54:13.201Z,18.70
2019-03-23T12:56:43.895Z,18.80
2019-03-23T12:59:14.968Z,19.10
2019-03-23T13:01:45.819Z,19.10
2019-03-23T13:04:16.399Z,18.90
2019-03-23T13:06:48.001Z,18.30
2019-03-23T13:09:18.800Z,18.00
2019-03-23T13:11:49.823Z,17.70
2019-03-23T13:14:20.724Z,17.10
2019-03-23T13:16:51.617Z,16.70
2019-03-23T13:19:22.229Z,16.70
2019-03-23T13:21:52.835Z,16.70
2019-03-23T13:24:23.464Z,16.60
2019-03-23T13:26:54.040Z,16.70
2019-03-23T13:29:24.950Z,16.70
2019-03-23T13:31:55.524Z,16.50
2019-03-23T13:34:26.156Z,16.40
2019-03-23T13:36:56.739Z,15.80
2019-03-23T13:39:27.393Z,15.70
2019-03-23T13:41:57.969Z,15.40
2019-03-23T13:44:28.862Z,15.20
2019-03-23T13:46:59.446Z,15.20
2019-03-23T13:49:30.635Z,15.40
2019-03-23T13:52:01.942Z,15.40
2019-03-23T13:54:32.963Z,15.40
2019-03-23T13:57:03.543Z,15.30
2019-03-23T13:59:34.192Z,15.40
2019-03-23T14:02:04.848Z,15.30
2019-03-23T14:04:36.608Z,15.20
2019-03-23T14:07:07.508Z,15.30
2019-03-23T14:09:38.378Z,15.30
2019-03-23T14:12:09.180Z,15.40
2019-03-23T14:14:40.064Z,15.60
2019-03-23T14:17:10.757Z,15.70
2019-03-23T14:19:41.656Z,15.70
2019-03-23T14:22:12.484Z,15.50
2019-03-23T14:24:43.245Z,15.40
2019-03-23T14:27:14.308Z,15.40
2019-03-23T14:29:45.540Z,15.30
2019-03-23T14:32:16.673Z,15.10
2019-03-23T14:34:48.262Z,15.30
2019-03-23T14:37:18.840Z,15.10
2019-03-23T14:39:49.688Z,15.00
2019-03-23T14:42:20.259Z,15.30
2019-03-23T14:44:50.890Z,15.20
2019-03-23T14:47:21.955Z,15.00
2019-03-23T14:49:52.836Z,15.00
2019-03-23T14:52:23.692Z,14.90
2019-03-23T14:54:54.275Z,14.70
2019-03-23T14:57:25.181Z,14.70
2019-03-23T14:59:55.900Z,14.80
2019-03-23T15:02:26.720Z,14.60
2019-03-23T15:04:58.327Z,14.50
2019-03-23T15:07:29.012Z,14.60
2019-03-23T15:09:59.891Z,14.50
2019-03-23T15:12:30.716Z,14.60
2019-03-23T15:15:02.105Z,14.60
2019-03-23T15:17:33.659Z,14.40
2019-03-23T15:20:04.954Z,14.40
2019-03-23T15:22:35.530Z,14.50
2019-03-23T15:25:08.596Z,14.40
2019-03-23T15:27:39.213Z,14.40
2019-03-23T15:30:09.869Z,14.30
2019-03-23T15:32:40.749Z,14.30
2019-03-23T15:35:12.145Z,14.00
2019-03-23T15:37:43.002Z,14.00
2019-03-23T15:40:13.667Z,14.00
2019-03-23T15:42:44.736Z,13.80
2019-03-23T15:45:15.905Z,13.60
2019-03-23T15:47:46.959Z,13.60
2019-03-23T15:50:18.227Z,13.60
2019-03-23T15:52:49.356Z,13.60
2019-03-23T15:55:19.984Z,13.70
2019-03-23T15:57:50.814Z,13.80
2019-03-23T16:00:21.500Z,13.80
2019-03-23T16:02:53.116Z,13.70
2019-03-23T16:05:23.813Z,13.80
2019-03-23T16:07:54.624Z,13.60
2019-03-23T16:10:25.376Z,13.50
2019-03-23T16:12:56.194Z,13.50
2019-03-23T16:15:27.089Z,13.40
2019-03-23T16:17:57.660Z,13.60
2019-03-23T16:20:28.780Z,13.70
2019-03-23T16:23:00.076Z,13.60
2019-03-23T16:25:30.943Z,13.40
2019-03-23T16:28:01.766Z,13.30
2019-03-23T16:30:33.748Z,13.20
2019-03-23T16:33:04.398Z,13.20
2019-03-23T16:35:35.296Z,13.20
2019-03-23T16:38:06.201Z,13.20
2019-03-23T16:40:37.112Z,13.30
2019-03-23T16:43:07.725Z,13.30
2019-03-23T16:45:38.623Z,13.20
2019-03-23T16:48:09.212Z,13.10
2019-03-23T16:50:41.059Z,13.10
2019-03-23T16:53:11.877Z,13.10
2019-03-23T16:55:42.509Z,13.20
2019-03-23T16:58:16.431Z,13.20
2019-03-23T17:00:45.721Z,13.10
2019-03-23T17:03:16.296Z,13.20
2019-03-23T17:05:47.420Z,13.20
2019-03-23T17:08:18.802Z,13.20
2019-03-23T17:10:49.606Z,13.20
2019-03-23T17:13:20.648Z,13.10
2019-03-23T17:15:51.496Z,13.00
2019-03-23T17:18:22.819Z,13.00
2019-03-23T17:20:53.751Z,13.00
2019-03-23T17:23:24.639Z,13.10
2019-03-23T17:25:59.573Z,13.10
2019-03-23T17:28:30.523Z,13.00
2019-03-23T17:31:01.206Z,13.00
2019-03-23T17:33:32.536Z,12.90
2019-03-23T17:36:03.181Z,12.70
2019-03-23T17:38:35.025Z,12.70
2019-03-23T17:41:06.312Z,12.60
2019-03-23T17:43:37.120Z,12.50
2019-03-23T17:46:07.732Z,12.50
2019-03-23T17:48:40.205Z,12.50
2019-03-23T17:51:11.255Z,12.60
2019-03-23T17:53:42.240Z,12.50
2019-03-23T17:56:12.825Z,12.50
2019-03-23T17:58:43.924Z,12.50
2019-03-23T18:01:19.632Z,12.50
2019-03-23T18:03:49.812Z,12.40
2019-03-23T18:06:20.625Z,12.40
2019-03-23T18:08:51.488Z,12.40
2019-03-23T18:11:22.542Z,12.40
2019-03-23T18:13:53.436Z,12.40
2019-03-23T18:16:24.052Z,12.40
2019-03-23T18:18:54.633Z,12.40
2019-03-23T18:21:25.192Z,12.40
2019-03-23T18:23:55.884Z,12.50
2019-03-23T18:26:26.701Z,12.50
2019-03-23T18:28:58.724Z,12.50
2019-03-23T18:31:29.531Z,12.50
2019-03-23T18:34:01.011Z,12.50
2019-03-23T18:36:31.960Z,12.40
2019-03-23T18:39:03.188Z,12.30
2019-03-23T18:41:34.595Z,12.30
2019-03-23T18:44:15.572Z,12.30
2019-03-23T18:46:38.944Z,12.30
2019-03-23T18:49:09.886Z,12.30
2019-03-23T18:51:40.943Z,12.20
2019-03-23T18:54:13.232Z,12.10
2019-03-23T18:56:44.165Z,12.10
2019-03-23T18:59:14.760Z,12.10
2019-03-23T19:01:46.053Z,12.00
2019-03-23T19:04:17.212Z,12.00
2019-03-23T19:06:48.223Z,12.00
2019-03-23T19:09:19.047Z,11.90
2019-03-23T19:11:49.736Z,12.00
2019-03-23T19:14:20.356Z,12.00
2019-03-23T19:16:51.234Z,12.10
2019-03-23T19:19:22.152Z,12.10
2019-03-23T19:21:53.141Z,12.10
2019-03-23T19:24:23.704Z,12.10
2019-03-23T19:26:54.548Z,12.10
2019-03-23T19:29:27.597Z,12.10
2019-03-23T19:31:57.690Z,12.10
2019-03-23T19:34:28.593Z,12.10
2019-03-23T19:36:59.683Z,12.10
2019-03-23T19:39:30.652Z,12.10
2019-03-23T19:42:01.439Z,12.10
2019-03-23T19:44:32.391Z,12.00
2019-03-23T19:47:03.318Z,12.00
2019-03-23T19:49:34.164Z,11.90
2019-03-23T19:52:05.224Z,11.90
2019-03-23T19:54:36.047Z,11.90
2019-03-23T19:57:06.872Z,11.70
2019-03-23T19:59:39.249Z,11.60
2019-03-23T20:02:09.848Z,11.60
2019-03-23T20:04:40.897Z,11.50
2019-03-23T20:07:11.523Z,11.60
2019-03-23T20:09:42.216Z,11.70
2019-03-23T20:12:15.835Z,11.70
2019-03-23T20:14:46.692Z,11.60
2019-03-23T20:17:17.567Z,11.60
2019-03-23T20:19:48.418Z,11.60
2019-03-23T20:22:19.095Z,11.60
2019-03-23T20:24:49.972Z,11.30
2019-03-23T20:27:21.064Z,11.30
2019-03-23T20:29:51.942Z,11.20
2019-03-23T20:32:23.093Z,11.20
2019-03-23T20:34:53.921Z,11.10
2019-03-23T20:37:24.987Z,11.00
2019-03-23T20:39:55.689Z,11.10
2019-03-23T20:42:26.801Z,11.00
2019-03-23T20:44:57.643Z,10.80
2019-03-23T20:47:28.752Z,10.80
2019-03-23T20:49:59.652Z,10.80
2019-03-23T20:52:30.285Z,10.70
2019-03-23T20:55:01.266Z,10.60
2019-03-23T20:57:37.355Z,10.50
2019-03-23T21:00:05.484Z,10.40
2019-03-23T21:02:36.527Z,10.40
2019-03-23T21:05:07.548Z,10.30
2019-03-23T21:07:38.451Z,10.20
2019-03-23T21:10:10.440Z,10.10
2019-03-23T21:12:41.424Z,10.10
2019-03-23T21:15:12.196Z,10.10
2019-03-23T21:17:51.150Z,10.00
2019-03-23T21:20:15.843Z,10.00
2019-03-23T21:22:46.708Z,10.00
2019-03-23T21:25:17.612Z,9.90
2019-03-23T21:27:49.057Z,9.90
2019-03-23T21:30:20.053Z,10.00
2019-03-23T21:32:51.015Z,10.00
2019-03-23T21:35:21.891Z,9.80
2019-03-23T21:37:52.455Z,9.80
2019-03-23T21:40:23.380Z,9.80
2019-03-23T21:42:54.167Z,9.80
2019-03-23T21:45:25.036Z,9.70
2019-03-23T21:47:55.896Z,9.70
2019-03-23T21:50:26.709Z,9.70
2019-03-23T21:52:57.398Z,9.70
2019-03-23T21:55:28.056Z,9.70
2019-03-23T21:57:59.129Z,9.70
2019-03-23T22:00:34.065Z,9.60
2019-03-23T22:03:05.255Z,9.60
2019-03-23T22:05:36.568Z,9.60
2019-03-23T22:08:08.260Z,9.60
2019-03-23T22:10:39.539Z,9.50
2019-03-23T22:13:10.156Z,9.40
2019-03-23T22:15:41.011Z,9.30
2019-03-23T22:18:11.827Z,9.20
2019-03-23T22:20:42.912Z,9.00
2019-03-23T22:23:14.081Z,9.00
2019-03-23T22:25:44.867Z,8.90
2019-03-23T22:28:16.120Z,8.90
2019-03-23T22:30:47.012Z,8.80
2019-03-23T22:33:18.080Z,8.60
2019-03-23T22:35:49.194Z,8.50
2019-03-23T22:38:21.220Z,8.40
2019-03-23T22:40:52.498Z,8.30
2019-03-23T22:43:23.366Z,8.30
2019-03-23T22:45:54.161Z,8.20
2019-03-23T22:48:24.829Z,8.20
2019-03-23T22:50:55.743Z,8.20
2019-03-23T22:53:26.544Z,8.20
2019-03-23T22:55:57.424Z,8.40
2019-03-23T22:58:28.208Z,8.10
2019-03-23T23:00:58.984Z,7.90
2019-03-23T23:03:29.826Z,7.90
2019-03-23T23:06:01.168Z,7.80
2019-03-23T23:08:31.967Z,7.90
2019-03-23T23:11:03.529Z,7.80
2019-03-23T23:13:34.568Z,7.70
2019-03-23T23:16:05.320Z,7.60
2019-03-23T23:18:36.134Z,7.50
2019-03-23T23:21:07.059Z,7.40
2019-03-23T23:23:37.763Z,7.20
2019-03-23T23:26:08.340Z,7.10
2019-03-23T23:28:39.208Z,6.90
2019-03-23T23:31:10.052Z,6.90
2019-03-23T23:33:42.632Z,6.80
2019-03-23T23:36:13.696Z,7.10
2019-03-23T23:38:44.292Z,7.30
2019-03-23T23:41:15.158Z,7.10
2019-03-23T23:43:46.173Z,6.90
2019-03-23T23:46:17.012Z,6.60
2019-03-23T23:48:51.537Z,6.50
2019-03-23T23:51:20.639Z,6.50
2019-03-23T23:53:51.629Z,6.50
2019-03-23T23:56:22.445Z,6.60
2019-03-23T23:58:53.080Z,6.60
